Time;durP1;ratioP1;P1;durP2;ratioP2;P2;SDS_P1;SDS_P2;PMS_P1;PMS_P2;Temp;Humidity;BMP_temperature;BMP_pressure;BME280_temperature;BME280_humidity;BME280_pressure;Samples;Min_cycle;Max_cycle;Signal;HPM_P1;HPM_P2
2022/04/17 00:00:06;;;;;;;2.70;2.50;;;6.90;77.50;;;;;;5952498;24;20230;-76
2022/04/17 00:02:33;;;;;;;2.60;2.40;;;6.80;77.30;;;;;;5951874;24;20191;-77
2022/04/17 00:05:00;;;;;;;2.72;2.53;;;6.80;77.30;;;;;;5948501;24;20199;-76
2022/04/17 00:07:29;;;;;;;2.30;2.10;;;6.80;77.30;;;;;;5972071;24;20191;-76
2022/04/17 00:09:56;;;;;;;2.38;2.17;;;6.80;77.70;;;;;;5962720;23;20223;-76
2022/04/17 00:12:23;;;;;;;3.17;2.88;;;6.80;77.80;;;;;;5947049;24;20891;-76
2022/04/17 00:14:51;;;;;;;2.08;1.92;;;6.70;77.60;;;;;;5960861;24;20214;-76
2022/04/17 00:17:18;;;;;;;2.50;2.30;;;6.80;77.90;;;;;;5952622;24;20278;-76
2022/04/17 00:19:45;;;;;;;3.10;2.90;;;6.80;77.90;;;;;;5949986;24;20274;-77
2022/04/17 00:22:13;;;;;;;2.40;2.20;;;6.70;77.80;;;;;;5928532;24;20218;-76
2022/04/17 00:24:41;;;;;;;2.88;2.67;;;6.70;78.00;;;;;;5948781;24;20195;-76
2022/04/17 00:27:09;;;;;;;3.00;2.70;;;6.70;78.40;;;;;;5955884;24;20201;-76
2022/04/17 00:29:36;;;;;;;2.55;2.35;;;6.60;78.40;;;;;;5960047;24;20274;-76
2022/04/17 00:32:03;;;;;;;3.95;2.60;;;6.60;78.80;;;;;;5964445;24;20278;-77
2022/04/17 00:34:30;;;;;;;2.80;2.60;;;6.60;79.00;;;;;;5970268;24;20274;-76
2022/04/17 00:36:59;;;;;;;3.28;2.42;;;6.60;78.90;;;;;;5954137;24;20281;-76
2022/04/17 00:39:26;;;;;;;2.60;2.40;;;6.60;79.20;;;;;;5946743;24;20214;-76
2022/04/17 00:41:54;;;;;;;2.75;2.53;;;6.60;79.20;;;;;;5945889;24;20230;-77
2022/04/17 00:44:21;;;;;;;3.15;2.85;;;6.50;79.60;;;;;;5960731;24;20201;-77
2022/04/17 00:46:49;;;;;;;2.75;2.55;;;6.50;80.00;;;;;;5948349;24;20283;-76
2022/04/17 00:49:16;;;;;;;2.63;2.40;;;6.40;80.40;;;;;;5948551;24;20191;-76
2022/04/17 00:51:44;;;;;;;3.22;3.03;;;6.30;81.10;;;;;;5948108;24;20207;-77
2022/04/17 00:54:13;;;;;;;3.25;2.75;;;6.30;81.40;;;;;;5967016;24;20248;-76
2022/04/17 00:56:41;;;;;;;3.05;2.80;;;6.20;81.60;;;;;;5964460;24;20733;-76
2022/04/17 00:59:10;;;;;;;3.20;2.90;;;6.20;82.50;;;;;;5956016;24;20277;-76
2022/04/17 01:01:38;;;;;;;3.63;3.03;;;6.10;82.30;;;;;;5952954;23;20302;-76
2022/04/17 01:04:06;;;;;;;3.42;3.13;;;6.10;82.30;;;;;;5951777;24;20225;-76
2022/04/17 01:06:33;;;;;;;3.00;2.75;;;6.10;82.90;;;;;;5946153;24;20207;-76
2022/04/17 01:09:01;;;;;;;3.03;2.70;;;6.00;82.70;;;;;;5931213;24;20271;-76
2022/04/17 01:11:29;;;;;;;2.95;2.55;;;6.00;83.00;;;;;;5946809;24;20211;-75
2022/04/17 01:13:56;;;;;;;2.67;2.40;;;5.90;83.00;;;;;;5958128;24;20187;-76
2022/04/17 01:16:25;;;;;;;2.90;2.60;;;5.90;83.40;;;;;;5962981;24;20261;-77
2022/04/17 01:18:56;;;;;;;2.78;2.47;;;5.90;83.30;;;;;;5952877;24;20880;-76
2022/04/17 01:21:25;;;;;;;4.13;2.60;;;5.90;83.60;;;;;;5951739;24;20239;-76
2022/04/17 01:29:31;;;;;;;4.80;4.40;;;5.80;84.40;;;;;;5934665;24;20195;-76
2022/04/17 01:31:58;;;;;;;4.30;3.67;;;5.70;84.50;;;;;;5960783;24;20202;-76
2022/04/17 01:34:25;;;;;;;3.95;3.28;;;5.70;84.80;;;;;;5955244;24;20222;-75
2022/04/17 01:36:54;;;;;;;5.22;3.35;;;5.60;84.70;;;;;;5943418;24;20226;-76
2022/04/17 01:39:22;;;;;;;3.50;3.20;;;5.60;84.70;;;;;;5949384;24;20199;-76
2022/04/17 01:41:50;;;;;;;3.20;3.00;;;5.60;84.90;;;;;;5972954;24;20273;-76
2022/04/17 01:44:17;;;;;;;3.40;2.80;;;5.60;85.00;;;;;;5957896;24;20199;-78
2022/04/17 01:46:45;;;;;;;3.00;2.63;;;5.60;85.10;;;;;;5973155;24;20538;-77
2022/04/17 01:49:12;;;;;;;4.38;3.97;;;5.60;85.40;;;;;;5964245;24;20230;-76
2022/04/17 01:51:41;;;;;;;4.30;3.90;;;5.50;85.60;;;;;;5955540;24;20290;-76
2022/04/17 01:54:10;;;;;;;4.78;4.47;;;5.50;85.50;;;;;;5959723;24;20270;-76
2022/04/17 01:56:39;;;;;;;4.57;4.22;;;5.60;86.00;;;;;;5952411;24;20326;-76
2022/04/17 01:59:07;;;;;;;4.05;3.63;;;5.60;86.00;;;;;;5955046;24;20221;-76
2022/04/17 02:01:36;;;;;;;2.88;2.63;;;5.60;86.00;;;;;;5971896;24;21039;-75
2022/04/17 02:04:03;;;;;;;2.70;2.50;;;5.50;85.90;;;;;;5965436;24;20600;-76
2022/04/17 02:06:30;;;;;;;2.80;2.60;;;5.50;86.10;;;;;;5954665;24;20566;-76
2022/04/17 02:08:57;;;;;;;2.55;2.35;;;5.40;86.40;;;;;;5953120;24;20191;-76
2022/04/17 02:11:27;;;;;;;3.42;2.85;;;5.40;86.60;;;;;;5957917;24;20739;-77
2022/04/17 02:13:54;;;;;;;2.38;2.17;;;5.30;86.90;;;;;;5953132;24;20198;-76
2022/04/17 02:16:22;;;;;;;3.78;2.55;;;5.30;87.00;;;;;;5951392;24;20251;-77
2022/04/17 02:18:49;;;;;;;2.55;2.35;;;5.30;87.30;;;;;;5938475;24;20195;-75
2022/04/17 02:21:18;;;;;;;2.88;2.58;;;5.30;87.30;;;;;;5966044;24;20242;-76
2022/04/17 02:23:45;;;;;;;2.70;2.50;;;5.30;87.40;;;;;;5960998;24;20610;-76
2022/04/17 02:26:16;;;;;;;3.40;3.10;;;5.20;87.50;;;;;;5956407;24;20632;-75
2022/04/17 02:28:45;;;;;;;2.63;2.42;;;5.20;87.60;;;;;;5951054;24;20222;-76
2022/04/17 02:31:12;;;;;;;3.38;3.03;;;5.20;87.80;;;;;;5957658;24;20217;-76
2022/04/17 02:33:40;;;;;;;2.72;2.50;;;5.20;88.00;;;;;;5957091;24;20223;-76
2022/04/17 02:36:07;;;;;;;3.20;2.90;;;5.10;88.30;;;;;;5946627;24;20222;-75
2022/04/17 02:38:34;;;;;;;3.13;2.83;;;5.10;88.40;;;;;;5953855;24;20198;-76
2022/04/17 02:41:02;;;;;;;4.63;3.10;;;5.10;88.70;;;;;;5965181;23;20223;-76
2022/04/17 02:43:28;;;;;;;3.47;3.17;;;5.10;89.00;;;;;;5950585;24;20195;-76
2022/04/17 02:45:57;;;;;;;2.92;2.72;;;5.10;89.50;;;;;;5948974;24;20595;-75
2022/04/17 02:48:24;;;;;;;3.38;3.10;;;5.10;89.70;;;;;;5964267;24;20198;-75
2022/04/17 02:50:51;;;;;;;3.15;2.85;;;5.10;89.60;;;;;;5955194;24;20246;-76
2022/04/17 02:53:19;;;;;;;3.22;2.95;;;5.10;89.80;;;;;;5943134;24;20199;-74
2022/04/17 02:55:46;;;;;;;3.13;2.83;;;5.00;89.90;;;;;;5947611;24;20223;-75
2022/04/17 02:58:13;;;;;;;2.75;2.55;;;5.00;90.00;;;;;;5946510;24;21168;-75
2022/04/17 03:05:36;;;;;;;2.90;2.70;;;5.00;90.10;;;;;;5961565;23;20235;-75
2022/04/17 03:06:25;;;;;;;3.00;2.80;;;4.90;90.30;;;;;;5953417;24;20242;-75
2022/04/17 03:08:52;;;;;;;3.42;3.13;;;4.90;90.50;;;;;;5947461;24;20270;-79
2022/04/17 03:11:19;;;;;;;3.35;3.05;;;4.90;90.60;;;;;;5974367;24;20222;-74
2022/04/17 03:13:48;;;;;;;3.17;2.90;;;4.90;90.70;;;;;;5937109;24;20212;-75
2022/04/17 03:16:15;;;;;;;3.35;3.10;;;4.90;90.80;;;;;;5947697;24;20215;-75
2022/04/17 03:18:44;;;;;;;4.07;3.00;;;4.90;90.90;;;;;;5956213;24;20650;-75
2022/04/17 03:21:11;;;;;;;3.08;2.88;;;4.90;90.80;;;;;;5949439;24;20362;-76
2022/04/17 03:23:38;;;;;;;3.50;3.20;;;5.00;91.00;;;;;;5953829;24;20221;-74
2022/04/17 03:26:05;;;;;;;2.92;2.63;;;5.00;91.00;;;;;;5954751;24;20278;-75
2022/04/17 03:28:32;;;;;;;3.65;3.35;;;5.10;91.10;;;;;;5949370;24;20198;-76
2022/04/17 03:30:59;;;;;;;3.30;3.00;;;5.10;91.20;;;;;;5949472;24;20239;-76
2022/04/17 03:33:28;;;;;;;3.15;2.85;;;5.10;91.30;;;;;;5949922;24;20609;-76
2022/04/17 03:35:56;;;;;;;3.20;2.90;;;5.10;91.40;;;;;;5950051;24;20262;-77
2022/04/17 03:38:23;;;;;;;4.10;3.13;;;5.10;91.40;;;;;;5949186;24;20318;-76
2022/04/17 03:40:50;;;;;;;4.18;3.00;;;5.00;91.60;;;;;;5948531;24;20219;-75
2022/04/17 03:43:17;;;;;;;3.33;3.13;;;5.00;91.70;;;;;;5951275;24;20222;-76
2022/04/17 03:45:47;;;;;;;2.85;2.65;;;5.00;91.70;;;;;;5949095;24;20291;-75
2022/04/17 03:48:17;;;;;;;2.70;2.50;;;5.00;91.60;;;;;;5950479;24;20206;-76
2022/04/17 03:50:44;;;;;;;3.03;2.60;;;5.00;91.70;;;;;;5939495;24;20239;-75
2022/04/17 03:53:12;;;;;;;3.53;3.03;;;4.90;91.70;;;;;;5945656;24;20690;-76
2022/04/17 03:55:39;;;;;;;3.08;2.88;;;4.90;91.90;;;;;;5946287;24;20200;-77
2022/04/17 03:58:06;;;;;;;2.83;2.63;;;4.90;91.80;;;;;;5949327;24;20188;-77
2022/04/17 04:00:33;;;;;;;3.10;2.90;;;4.90;92.00;;;;;;5948414;23;20232;-77
2022/04/17 04:03:01;;;;;;;3.15;2.92;;;4.90;91.90;;;;;;5949038;24;20222;-76
2022/04/17 04:05:28;;;;;;;3.63;3.33;;;4.90;91.80;;;;;;5955108;24;20197;-76
2022/04/17 04:07:55;;;;;;;3.95;3.55;;;4.90;91.80;;;;;;5949371;24;20219;-77
2022/04/17 04:10:23;;;;;;;3.15;2.85;;;4.80;91.50;;;;;;5955390;23;20218;-76
2022/04/17 04:12:50;;;;;;;4.28;3.50;;;4.80;91.70;;;;;;5959110;24;20258;-77
2022/04/17 04:15:17;;;;;;;3.58;3.25;;;4.80;91.90;;;;;;5951442;24;20187;-75
2022/04/17 04:17:44;;;;;;;3.22;2.92;;;4.80;91.80;;;;;;5951051;24;20278;-76
2022/04/17 04:20:12;;;;;;;3.95;3.25;;;4.80;91.90;;;;;;5949384;24;20273;-75
2022/04/17 04:22:38;;;;;;;2.85;2.65;;;4.70;91.80;;;;;;5945366;24;20643;-76
2022/04/17 04:25:07;;;;;;;3.08;2.83;;;4.80;91.90;;;;;;5949478;24;20205;-75
2022/04/17 04:30:20;;;;;;;4.18;3.00;;;4.70;92.00;;;;;;5956342;23;20691;-76
2022/04/17 04:32:54;;;;;;;3.88;3.35;;;4.70;92.10;;;;;;5951432;24;20198;-76
2022/04/17 04:35:21;;;;;;;2.83;2.63;;;4.70;92.00;;;;;;5959589;24;20193;-76
2022/04/17 04:37:48;;;;;;;3.30;3.00;;;4.70;92.10;;;;;;5942362;24;20230;-76
2022/04/17 04:40:16;;;;;;;3.10;2.90;;;4.70;92.10;;;;;;5946484;24;20226;-76
2022/04/17 04:42:44;;;;;;;3.28;3.00;;;4.70;92.20;;;;;;5948874;24;20298;-76
2022/04/17 04:47:56;;;;;;;3.45;3.15;;;4.70;92.30;;;;;;5943602;24;20273;-76
2022/04/17 04:50:23;;;;;;;3.20;2.90;;;4.70;92.40;;;;;;5946657;24;20222;-76
2022/04/17 04:52:49;;;;;;;3.53;3.33;;;4.80;92.40;;;;;;5947391;24;20191;-76
2022/04/17 04:55:17;;;;;;;2.70;2.50;;;4.70;92.30;;;;;;5952260;24;20266;-76
2022/04/17 04:57:45;;;;;;;3.05;2.75;;;4.70;92.30;;;;;;5948209;24;20258;-76
2022/04/17 05:00:13;;;;;;;3.65;3.03;;;4.70;92.40;;;;;;5957158;23;20211;-77
2022/04/17 05:02:41;;;;;;;2.90;2.70;;;4.70;92.80;;;;;;5950715;24;20643;-76
2022/04/17 05:05:09;;;;;;;3.30;3.00;;;4.80;92.60;;;;;;5955441;24;20222;-76
2022/04/17 05:07:36;;;;;;;3.20;2.90;;;4.80;92.50;;;;;;5945389;24;20233;-76
2022/04/17 05:10:04;;;;;;;3.03;2.78;;;4.90;92.50;;;;;;5952020;24;20249;-76
2022/04/17 05:12:31;;;;;;;4.32;3.20;;;4.90;92.20;;;;;;5949292;24;20241;-77
2022/04/17 05:14:59;;;;;;;3.38;3.08;;;5.00;92.30;;;;;;5949569;24;21828;-76
2022/04/17 05:17:26;;;;;;;3.70;3.40;;;5.00;92.20;;;;;;5951841;24;20262;-76
2022/04/17 05:19:53;;;;;;;2.88;2.58;;;5.00;92.00;;;;;;5947561;24;20301;-76
2022/04/17 05:22:30;;;;;;;3.10;2.90;;;4.90;92.00;;;;;;5953082;24;20201;-76
2022/04/17 05:24:57;;;;;;;3.13;2.88;;;4.90;92.10;;;;;;5946583;24;20205;-76
2022/04/17 05:27:24;;;;;;;3.20;2.80;;;4.90;92.10;;;;;;5946228;24;20200;-76
2022/04/17 05:29:51;;;;;;;2.70;2.50;;;4.90;92.10;;;;;;5951055;24;20290;-76
2022/04/17 05:32:19;;;;;;;3.50;3.17;;;4.90;92.10;;;;;;5939182;24;20659;-77
2022/04/17 05:34:46;;;;;;;3.03;2.72;;;4.90;92.40;;;;;;5947619;24;20285;-77
2022/04/17 05:37:13;;;;;;;3.65;3.35;;;4.90;92.60;;;;;;5945576;24;20228;-74
2022/04/17 05:39:41;;;;;;;3.30;3.00;;;5.00;92.80;;;;;;5956965;24;20610;-74
2022/04/17 05:42:08;;;;;;;4.38;2.90;;;5.00;92.90;;;;;;5945711;24;20270;-74
2022/04/17 05:44:37;;;;;;;2.92;2.60;;;5.10;92.90;;;;;;5948774;24;20195;-76
2022/04/17 05:47:04;;;;;;;4.80;3.15;;;5.10;92.60;;;;;;5952460;24;20241;-76
2022/04/17 05:49:33;;;;;;;3.90;3.60;;;5.10;92.70;;;;;;5948453;24;20893;-77
2022/04/17 05:52:00;;;;;;;3.10;2.80;;;5.10;92.50;;;;;;5953099;24;20640;-76
2022/04/17 05:54:28;;;;;;;3.30;3.00;;;5.20;92.50;;;;;;5952246;24;20354;-77
2022/04/17 05:56:55;;;;;;;3.10;2.90;;;5.30;92.50;;;;;;5953716;24;20301;-77
2022/04/17 05:59:22;;;;;;;3.20;2.90;;;5.40;92.40;;;;;;5948046;24;20229;-76
2022/04/17 06:01:49;;;;;;;3.20;2.90;;;5.50;92.30;;;;;;5951820;24;20191;-77
2022/04/17 06:04:16;;;;;;;3.42;2.90;;;5.50;92.20;;;;;;5950661;24;20206;-77
2022/04/17 06:06:44;;;;;;;4.88;3.38;;;5.60;92.40;;;;;;5952654;24;20209;-77
2022/04/17 06:09:11;;;;;;;4.00;3.05;;;5.70;92.10;;;;;;5950731;24;20213;-77
2022/04/17 06:11:38;;;;;;;3.30;3.00;;;5.80;92.20;;;;;;5949347;24;20291;-76
2022/04/17 06:14:05;;;;;;;3.47;3.17;;;5.90;91.80;;;;;;5955273;24;20919;-77
2022/04/17 06:16:33;;;;;;;3.08;2.78;;;6.00;92.30;;;;;;5947673;24;20301;-76
2022/04/17 06:19:00;;;;;;;2.97;2.65;;;6.00;91.50;;;;;;5949009;24;20304;-77
2022/04/17 06:21:27;;;;;;;2.92;2.72;;;6.10;91.80;;;;;;5941893;24;20213;-77
2022/04/17 06:23:55;;;;;;;3.20;2.90;;;6.10;91.70;;;;;;5960317;24;20734;-76
2022/04/17 06:26:22;;;;;;;2.97;2.67;;;6.20;91.90;;;;;;5947896;24;20195;-76
2022/04/17 06:28:50;;;;;;;3.50;3.20;;;6.30;91.70;;;;;;5949152;24;20547;-77
2022/04/17 06:31:17;;;;;;;3.08;2.78;;;6.30;91.40;;;;;;5951620;24;20206;-77
2022/04/17 06:33:43;;;;;;;4.22;2.83;;;6.50;91.10;;;;;;5954787;24;20710;-77
2022/04/17 06:36:10;;;;;;;3.13;2.80;;;6.50;90.60;;;;;;5947289;24;20215;-77
2022/04/17 06:38:37;;;;;;;3.85;2.67;;;6.50;90.80;;;;;;5944673;24;20923;-77
2022/04/17 06:41:06;;;;;;;3.08;2.85;;;6.70;90.80;;;;;;5932968;24;20203;-77
2022/04/17 06:43:33;;;;;;;3.05;2.72;;;6.80;90.70;;;;;;5948761;24;20275;-76
2022/04/17 06:46:00;;;;;;;3.28;2.72;;;6.90;90.70;;;;;;5954708;24;20196;-77
2022/04/17 06:48:27;;;;;;;2.80;2.60;;;7.20;89.80;;;;;;5950448;24;20275;-77
2022/04/17 06:50:54;;;;;;;2.88;2.58;;;7.60;88.60;;;;;;5948203;24;20212;-77
2022/04/17 06:53:22;;;;;;;3.00;2.70;;;8.20;88.40;;;;;;5948183;24;20203;-77
2022/04/17 06:55:49;;;;;;;3.08;2.78;;;8.80;85.90;;;;;;5947636;24;20204;-76
2022/04/17 06:58:18;;;;;;;2.70;2.50;;;9.40;83.70;;;;;;5941522;24;20230;-77
2022/04/17 07:00:46;;;;;;;4.35;2.70;;;9.90;83.00;;;;;;5948060;24;20220;-77
2022/04/17 07:03:14;;;;;;;2.60;2.40;;;10.40;81.00;;;;;;5956188;24;20196;-77
2022/04/17 07:05:41;;;;;;;2.80;2.53;;;10.90;78.90;;;;;;5952484;24;20199;-77
2022/04/17 07:08:09;;;;;;;3.03;2.72;;;11.20;77.50;;;;;;5951696;24;20637;-78
2022/04/17 07:10:38;;;;;;;2.70;2.50;;;11.60;75.40;;;;;;5948129;24;20257;-78
2022/04/17 07:13:05;;;;;;;2.92;2.40;;;11.80;73.90;;;;;;5948946;24;20226;-78
2022/04/17 07:15:33;;;;;;;2.80;2.17;;;12.10;73.90;;;;;;5951443;24;20193;-76
2022/04/17 07:18:00;;;;;;;3.03;2.22;;;12.20;71.60;;;;;;5955432;24;20226;-78
2022/04/17 07:20:27;;;;;;;2.50;2.30;;;12.40;71.20;;;;;;5946487;24;20232;-79
2022/04/17 07:22:54;;;;;;;3.05;2.85;;;12.80;70.80;;;;;;5946187;24;20270;-77
2022/04/17 07:25:22;;;;;;;2.67;2.47;;;13.00;68.60;;;;;;5954966;24;20199;-78
2022/04/17 07:27:50;;;;;;;4.47;3.10;;;13.10;68.90;;;;;;5948949;24;20223;-79
2022/04/17 07:30:18;;;;;;;2.65;2.30;;;13.30;68.10;;;;;;5951583;24;20222;-78
2022/04/17 07:32:49;;;;;;;4.57;2.50;;;13.40;68.40;;;;;;5947314;24;20242;-78
2022/04/17 07:35:18;;;;;;;2.70;2.50;;;13.70;68.10;;;;;;5949219;24;20704;-79
2022/04/17 07:37:48;;;;;;;2.28;2.10;;;13.70;68.10;;;;;;5945434;24;20245;-79
2022/04/17 07:40:18;;;;;;;2.53;2.30;;;14.00;67.10;;;;;;5949912;24;20225;-76
2022/04/17 07:42:46;;;;;;;2.53;2.33;;;14.20;66.20;;;;;;5947691;24;20238;-76
2022/04/17 07:45:14;;;;;;;3.00;2.80;;;14.40;63.50;;;;;;5941826;24;20384;-76
2022/04/17 07:47:41;;;;;;;2.78;2.50;;;14.70;63.20;;;;;;5950274;24;20682;-76
2022/04/17 07:50:12;;;;;;;2.63;2.43;;;15.00;64.80;;;;;;5948797;24;20323;-78
2022/04/17 07:52:41;;;;;;;2.40;2.20;;;15.50;63.50;;;;;;5948280;24;20518;-79
2022/04/17 07:55:10;;;;;;;2.50;2.30;;;16.00;60.40;;;;;;5946119;24;20495;-78
2022/04/17 08:00:19;;;;;;;2.77;2.43;;;15.90;57.50;;;;;;5946699;24;20554;-75
2022/04/17 08:02:53;;;;;;;4.13;2.47;;;15.30;58.20;;;;;;5942161;24;20451;-76
2022/04/17 08:05:22;;;;;;;3.37;2.13;;;15.60;58.30;;;;;;5952809;24;20444;-79
2022/04/17 08:07:50;;;;;;;2.77;2.47;;;15.80;56.80;;;;;;5943222;24;20447;-79
2022/04/17 08:10:16;;;;;;;2.67;2.47;;;15.80;57.00;;;;;;5937348;24;20504;-77
2022/04/17 08:12:44;;;;;;;2.20;2.03;;;15.90;56.90;;;;;;5946293;24;20548;-78
2022/04/17 08:15:11;;;;;;;2.27;2.07;;;15.80;56.80;;;;;;5945999;24;20531;-76
2022/04/17 08:17:38;;;;;;;2.43;2.27;;;15.50;56.40;;;;;;5933034;24;20470;-79
2022/04/17 08:20:07;;;;;;;2.30;2.10;;;15.40;56.30;;;;;;5946380;24;20467;-79
2022/04/17 08:22:35;;;;;;;2.67;2.40;;;15.30;56.50;;;;;;5945065;24;20462;-79
2022/04/17 08:25:02;;;;;;;2.30;2.10;;;15.50;56.20;;;;;;5940842;24;20558;-79
2022/04/17 08:27:29;;;;;;;2.60;2.40;;;15.40;55.00;;;;;;5959566;24;20447;-79
2022/04/17 08:29:56;;;;;;;2.70;2.10;;;15.80;55.50;;;;;;5948424;24;20548;-78
2022/04/17 08:32:23;;;;;;;3.13;1.97;;;16.10;55.40;;;;;;5949513;24;20461;-77
2022/04/17 08:34:50;;;;;;;3.00;2.50;;;16.60;53.50;;;;;;5947558;24;20441;-79
2022/04/17 08:37:17;;;;;;;2.10;2.00;;;17.00;54.00;;;;;;5948733;24;20556;-79
2022/04/17 08:39:45;;;;;;;1.83;1.73;;;17.10;51.70;;;;;;5946140;24;20485;-79
2022/04/17 08:42:13;;;;;;;2.50;1.70;;;16.80;50.60;;;;;;5949672;24;21090;-80
2022/04/17 08:44:40;;;;;;;2.50;2.20;;;16.10;50.30;;;;;;5950774;24;20472;-77
2022/04/17 08:47:08;;;;;;;1.77;1.67;;;15.70;50.80;;;;;;5939023;24;20444;-79
2022/04/17 08:49:37;;;;;;;1.57;1.47;;;15.60;51.40;;;;;;5943333;24;20556;-78
2022/04/17 08:52:08;;;;;;;2.10;1.90;;;15.80;50.60;;;;;;5941741;24;20525;-78
2022/04/17 08:54:37;;;;;;;2.10;1.70;;;16.10;50.20;;;;;;5951214;24;21007;-78
2022/04/17 08:57:06;;;;;;;2.23;1.80;;;16.10;49.50;;;;;;5949595;24;20476;-77
2022/04/17 08:59:33;;;;;;;3.77;1.90;;;16.30;49.20;;;;;;5948532;24;21343;-77
2022/04/17 09:02:06;;;;;;;1.80;1.70;;;16.40;49.50;;;;;;5953860;24;20832;-78
2022/04/17 09:04:34;;;;;;;2.07;1.70;;;16.50;49.40;;;;;;5956977;24;20455;-77
2022/04/17 09:07:01;;;;;;;2.27;1.50;;;16.30;49.10;;;;;;5953301;24;20437;-77
2022/04/17 09:09:28;;;;;;;1.90;1.80;;;16.40;49.20;;;;;;5949089;24;21160;-78
2022/04/17 09:11:55;;;;;;;2.00;1.40;;;16.50;48.20;;;;;;5946250;24;20447;-77
2022/04/17 09:14:24;;;;;;;1.60;1.50;;;16.50;48.10;;;;;;5950812;24;20456;-77
2022/04/17 09:16:51;;;;;;;1.80;1.70;;;17.10;49.10;;;;;;5956382;24;20435;-79
2022/04/17 09:19:19;;;;;;;1.70;1.57;;;17.40;48.80;;;;;;5945835;24;20977;-79
2022/04/17 09:21:54;;;;;;;1.77;1.50;;;17.40;48.10;;;;;;5936523;24;20477;-79
2022/04/17 09:24:23;;;;;;;2.37;1.70;;;17.80;48.40;;;;;;5940995;24;20438;-79
2022/04/17 09:26:55;;;;;;;1.83;1.73;;;18.10;47.20;;;;;;5936373;24;20518;-80
2022/04/17 09:29:24;;;;;;;2.20;1.60;;;18.60;48.00;;;;;;5950104;24;20470;-80
2022/04/17 09:31:59;;;;;;;1.80;1.70;;;18.60;47.00;;;;;;5943776;24;20443;-81
2022/04/17 09:34:28;;;;;;;1.93;1.73;;;19.00;46.70;;;;;;5947273;24;20453;-81
2022/04/17 09:36:59;;;;;;;2.10;1.70;;;18.90;45.70;;;;;;5942087;24;20835;-81
2022/04/17 09:39:33;;;;;;;2.00;1.80;;;19.00;46.20;;;;;;5952405;23;20474;-80
2022/04/17 09:42:02;;;;;;;2.37;1.80;;;19.50;46.30;;;;;;5943786;24;20434;-81
2022/04/17 09:44:38;;;;;;;1.80;1.70;;;19.70;45.40;;;;;;5947864;24;20447;-81
2022/04/17 09:47:09;;;;;;;3.30;1.90;;;19.60;46.20;;;;;;5951251;24;20469;-80
2022/04/17 09:49:54;;;;;;;3.03;1.80;;;19.90;46.00;;;;;;5944860;24;20562;-80
2022/04/17 09:52:21;;;;;;;2.00;1.90;;;19.40;45.20;;;;;;5936392;24;20450;-80
2022/04/17 09:54:50;;;;;;;1.60;1.50;;;19.90;44.70;;;;;;5954098;24;21064;-82
2022/04/17 09:57:26;;;;;;;1.70;1.60;;;19.40;45.00;;;;;;5953919;24;20450;-83
2022/04/17 09:59:55;;;;;;;2.20;1.53;;;19.80;44.50;;;;;;5948566;24;20470;-82
2022/04/17 10:02:24;;;;;;;2.20;1.60;;;20.40;44.00;;;;;;5937723;24;20973;-82
2022/04/17 10:04:51;;;;;;;1.60;1.50;;;20.30;41.40;;;;;;5940875;24;20463;-81
2022/04/17 10:07:22;;;;;;;1.77;1.40;;;19.60;40.80;;;;;;5959488;24;20442;-81
2022/04/17 10:09:50;;;;;;;1.47;1.37;;;19.90;42.40;;;;;;5950602;24;20470;-80
2022/04/17 10:12:19;;;;;;;1.87;1.30;;;20.10;41.90;;;;;;5950092;24;21050;-81
2022/04/17 10:14:51;;;;;;;2.20;1.70;;;19.90;41.70;;;;;;5948189;24;20874;-81
2022/04/17 10:17:22;;;;;;;3.00;1.50;;;19.60;42.20;;;;;;5949790;24;21319;-81
2022/04/17 10:19:51;;;;;;;1.70;1.60;;;19.50;42.90;;;;;;5946819;24;20561;-79
2022/04/17 10:22:20;;;;;;;2.07;1.70;;;19.70;41.80;;;;;;5947632;24;20447;-81
2022/04/17 10:24:52;;;;;;;2.80;1.70;;;19.80;41.40;;;;;;5947362;24;20442;-81
2022/04/17 10:27:25;;;;;;;1.53;1.30;;;20.40;40.30;;;;;;5950281;24;20533;-80
2022/04/17 10:29:57;;;;;;;1.93;1.70;;;20.40;41.20;;;;;;5950587;24;20525;-82
2022/04/17 10:33:06;;;;;;;2.40;1.70;;;20.80;40.60;;;;;;5954191;24;20449;-81
2022/04/17 10:35:41;;;;;;;2.37;1.60;;;20.80;40.80;;;;;;5909793;24;20446;-81
2022/04/17 10:38:25;;;;;;;2.10;1.70;;;21.10;42.00;;;;;;5957655;24;21404;-82
2022/04/17 10:41:03;;;;;;;2.30;1.63;;;21.80;42.10;;;;;;5947674;24;20523;-82
2022/04/17 10:43:35;;;;;;;1.60;1.50;;;22.70;42.00;;;;;;5949574;24;20908;-82
2022/04/17 10:46:13;;;;;;;1.60;1.50;;;23.50;41.40;;;;;;5952292;24;20447;-82
2022/04/17 10:48:47;;;;;;;1.83;1.37;;;24.10;39.60;;;;;;5958482;23;20486;-81
2022/04/17 10:51:23;;;;;;;1.87;1.50;;;23.30;38.70;;;;;;5948740;24;20462;-81
2022/04/17 10:53:52;;;;;;;1.27;1.17;;;23.40;39.90;;;;;;5949123;24;20534;-83
2022/04/17 10:58:59;;;;;;;2.70;1.50;;;24.10;39.20;;;;;;5974369;23;20478;-81
2022/04/17 11:01:55;;;;;;;1.70;1.60;;;24.10;39.00;;;;;;5969328;23;20569;-79
2022/04/17 11:04:25;;;;;;;1.40;1.30;;;24.00;38.20;;;;;;5972722;23;20521;-80
2022/04/17 11:06:54;;;;;;;1.40;1.30;;;23.90;37.80;;;;;;5974466;23;20475;-80
2022/04/17 11:09:22;;;;;;;1.77;1.23;;;23.70;38.20;;;;;;5975315;23;20466;-80
2022/04/17 11:11:50;;;;;;;2.03;1.83;;;23.90;37.80;;;;;;5975020;23;20838;-79
2022/04/17 11:14:20;;;;;;;1.77;1.67;;;23.60;38.10;;;;;;5975237;23;20987;-79
2022/04/17 11:16:51;;;;;;;1.30;1.20;;;24.00;37.60;;;;;;5969174;23;20810;-80
2022/04/17 11:19:20;;;;;;;1.70;1.60;;;23.40;37.60;;;;;;5972549;23;20577;-80
2022/04/17 11:21:51;;;;;;;1.60;1.50;;;21.10;36.90;;;;;;5970818;23;20446;-81
2022/04/17 11:24:19;;;;;;;1.50;1.40;;;20.90;39.40;;;;;;5973405;23;20978;-81
2022/04/17 11:27:09;;;;;;;1.30;1.20;;;21.50;38.40;;;;;;5975215;23;20526;-81
2022/04/17 11:29:39;;;;;;;1.50;1.40;;;22.20;38.20;;;;;;5968239;23;20471;-80
2022/04/17 11:32:43;;;;;;;1.73;1.63;;;22.80;37.80;;;;;;5974057;23;20454;-79
2022/04/17 11:35:11;;;;;;;1.67;1.40;;;23.20;37.80;;;;;;5971966;23;20527;-80
2022/04/17 11:37:40;;;;;;;1.30;1.20;;;22.60;36.80;;;;;;5976819;24;20958;-80
2022/04/17 11:40:12;;;;;;;1.60;1.40;;;22.80;37.70;;;;;;5973760;23;20473;-79
2022/04/17 11:42:43;;;;;;;1.47;1.37;;;22.30;36.90;;;;;;5975894;23;20453;-80
2022/04/17 11:45:12;;;;;;;1.63;1.53;;;21.80;37.40;;;;;;5971741;23;20525;-80
2022/04/17 11:47:40;;;;;;;2.00;1.80;;;21.10;37.00;;;;;;5965742;23;20453;-80
2022/04/17 11:50:09;;;;;;;2.03;1.50;;;20.60;37.80;;;;;;5974786;23;20453;-80
2022/04/17 11:52:39;;;;;;;2.17;1.30;;;20.60;38.40;;;;;;5975281;23;20449;-80
2022/04/17 11:55:08;;;;;;;2.07;1.30;;;20.60;37.50;;;;;;5973324;23;20545;-80
2022/04/17 11:57:36;;;;;;;1.43;1.33;;;20.30;38.20;;;;;;5970016;23;20449;-80
2022/04/17 12:00:05;;;;;;;1.73;1.50;;;20.10;39.30;;;;;;5975704;23;20488;-80
2022/04/17 12:02:32;;;;;;;2.43;1.40;;;19.70;40.10;;;;;;5969393;23;20446;-80
2022/04/17 12:05:07;;;;;;;1.30;1.20;;;19.60;40.60;;;;;;5972463;23;20450;-80
2022/04/17 12:07:34;;;;;;;1.40;1.30;;;19.90;41.10;;;;;;5972776;23;20896;-80
2022/04/17 12:10:08;;;;;;;1.43;1.33;;;20.60;39.60;;;;;;5972751;23;20965;-80
2022/04/17 12:12:36;;;;;;;1.77;1.67;;;20.70;39.20;;;;;;5971972;23;20437;-81
2022/04/17 12:15:05;;;;;;;1.50;1.40;;;21.00;40.00;;;;;;5961195;23;20530;-80
2022/04/17 12:17:33;;;;;;;1.40;1.30;;;21.50;39.40;;;;;;5974271;23;20450;-81
2022/04/17 12:20:01;;;;;;;1.60;1.50;;;21.60;38.00;;;;;;5976766;23;20481;-80
2022/04/17 12:22:28;;;;;;;1.53;1.40;;;21.50;37.30;;;;;;5973585;23;20455;-82
2022/04/17 12:24:55;;;;;;;1.90;1.67;;;21.20;37.70;;;;;;5972438;24;20450;-78
2022/04/17 12:27:23;;;;;;;1.93;1.70;;;21.20;39.10;;;;;;5973668;23;20500;-78
2022/04/17 12:29:52;;;;;;;2.43;1.70;;;21.50;41.00;;;;;;5972366;23;20539;-80
2022/04/17 12:32:22;;;;;;;2.33;1.37;;;22.10;39.40;;;;;;5973084;23;20476;-79
2022/04/17 12:34:58;;;;;;;1.47;1.37;;;22.20;38.90;;;;;;5970815;23;20508;-78
2022/04/17 12:37:28;;;;;;;1.50;1.40;;;22.00;36.30;;;;;;5974362;23;20965;-78
2022/04/17 12:40:10;;;;;;;1.63;1.20;;;21.90;36.90;;;;;;5966029;23;20559;-78
2022/04/17 12:42:39;;;;;;;1.73;1.17;;;22.20;37.10;;;;;;5975770;24;20446;-79
2022/04/17 12:45:08;;;;;;;3.10;1.53;;;22.50;36.20;;;;;;5971141;23;20579;-83
2022/04/17 12:47:36;;;;;;;2.30;1.40;;;22.80;36.80;;;;;;5977559;23;20453;-83
2022/04/17 12:50:05;;;;;;;2.00;1.30;;;22.60;37.30;;;;;;5979556;23;20454;-83
2022/04/17 12:52:32;;;;;;;1.60;1.30;;;22.80;38.40;;;;;;5968456;23;20439;-88
2022/04/17 12:55:07;;;;;;;1.70;1.60;;;22.60;36.90;;;;;;5969070;23;20452;-83
2022/04/17 12:57:35;;;;;;;1.30;1.20;;;22.60;37.40;;;;;;5973651;24;20986;-83
2022/04/17 13:00:15;;;;;;;1.53;1.20;;;22.80;36.70;;;;;;5976935;24;20510;-84
2022/04/17 13:02:43;;;;;;;1.53;1.43;;;22.40;37.00;;;;;;5976378;24;20495;-83
2022/04/17 13:05:21;;;;;;;1.33;1.23;;;22.70;37.50;;;;;;5974166;24;20431;-83
2022/04/17 13:07:48;;;;;;;1.27;1.17;;;22.90;37.30;;;;;;5974256;23;20541;-83
2022/04/17 13:10:14;;;;;;;1.60;1.43;;;22.60;37.40;;;;;;5965826;23;20476;-82
2022/04/17 13:12:45;;;;;;;1.30;1.13;;;22.10;36.70;;;;;;5975157;23;20446;-82
2022/04/17 13:15:15;;;;;;;1.60;1.50;;;21.90;37.00;;;;;;5960011;24;20954;-82
2022/04/17 13:17:46;;;;;;;1.30;1.10;;;22.20;39.60;;;;;;5975286;23;20529;-82
2022/04/17 13:20:13;;;;;;;2.03;1.37;;;22.50;37.10;;;;;;5968695;23;20475;-83